Buoy 21852

sailwx.info

Track history (hours):
 
Tides and Currents Weather Stations Pressure Air Temp Water Temp Dewpoint Dewpoint Depression Visibility Wind Speed Wind Dir Waves Ship Positions

Susie O Neill

Last reported at 2018-Apr-12 10:54 UTC. Time now 2018-Apr-20 07:06 UTC.
Position S 33°51' E 151°13'.

Length 38 m.

Type: Passenger vessel. MMSI: 503374600.

Date/timePositionNaut miles runAvg speedWind from/ knotsBaromVisibWave heightAir tempDewpointWater temp
2018-Apr-12 10:54S 33°51' E 151°13'3 7.0
2018-Apr-12 10:31S 33°52' E 151°16'3 5.1
2018-Apr-12 10:00S 33°52' E 151°13'0 0.0
2018-Apr-12 09:30S 33°52' E 151°13'0 0.0
2018-Apr-12 09:00S 33°52' E 151°13'2 0.1
2018-Apr-11 11:32S 33°52' E 151°15'119.3
2018-Apr-11 11:30S 33°52' E 151°16'0 0.5
2018-Apr-11 11:01S 33°52' E 151°16'0 0.0
2018-Apr-11 10:30S 33°52' E 151°16'0 0.0
2018-Apr-11 10:01S 33°52' E 151°16'3 1.6
2018-Apr-11 08:09S 33°51' E 151°13'1 3.7
2018-Apr-11 07:58S 33°52' E 151°13'  
2018-Apr-06 08:04S 33°52' E 151°13'0 0.4
2018-Apr-06 08:00S 33°52' E 151°13'2 0.5
2018-Apr-06 02:38S 33°52' E 151°16'0 3.8
2018-Apr-06 02:30S 33°52' E 151°16'0 0.7
2018-Apr-06 01:55S 33°52' E 151°16'0 0.4
2018-Apr-06 01:30S 33°52' E 151°16'  
Track history (hours):
 
Tides and Currents Weather Stations Pressure Air Temp Water Temp Dewpoint Dewpoint Depression Visibility Wind Speed Wind Dir Waves Ship Positions

Susie O Neill

Last reported at 2018-Apr-12 10:54 UTC. Time now 2018-Apr-20 07:06 UTC.
Position S 33°51' E 151°13'.

Length 38 m.

Type: Passenger vessel. MMSI: 503374600.

Date/timePositionNaut miles runAvg speedWind from/ knotsBaromVisibWave heightAir tempDewpointWater temp
2018-Apr-12 10:54S 33°51' E 151°13'3 7.0
2018-Apr-12 10:31S 33°52' E 151°16'3 5.1
2018-Apr-12 10:00S 33°52' E 151°13'0 0.0
2018-Apr-12 09:30S 33°52' E 151°13'0 0.0
2018-Apr-12 09:00S 33°52' E 151°13'2 0.1
2018-Apr-11 11:32S 33°52' E 151°15'119.3
2018-Apr-11 11:30S 33°52' E 151°16'0 0.5
2018-Apr-11 11:01S 33°52' E 151°16'0 0.0
2018-Apr-11 10:30S 33°52' E 151°16'0 0.0
2018-Apr-11 10:01S 33°52' E 151°16'3 1.6
2018-Apr-11 08:09S 33°51' E 151°13'1 3.7
2018-Apr-11 07:58S 33°52' E 151°13'  
2018-Apr-06 08:04S 33°52' E 151°13'0 0.4
2018-Apr-06 08:00S 33°52' E 151°13'2 0.5
2018-Apr-06 02:38S 33°52' E 151°16'0 3.8
2018-Apr-06 02:30S 33°52' E 151°16'0 0.7
2018-Apr-06 01:55S 33°52' E 151°16'0 0.4
2018-Apr-06 01:30S 33°52' E 151°16'  

Dump ship's entire track history